createdAt,value
2018-11-01T00:02:12.826Z,48.23
2018-11-01T00:04:43.236Z,47.73
2018-11-01T00:07:13.709Z,49.07
2018-11-01T00:09:44.219Z,46.80
2018-11-01T00:12:14.829Z,47.40
2018-11-01T00:14:45.301Z,57.67
2018-11-01T00:17:15.952Z,62.57
2018-11-01T00:19:46.453Z,67.80
2018-11-01T00:22:16.845Z,72.00
2018-11-01T00:24:47.239Z,75.77
2018-11-01T00:27:17.794Z,79.97
2018-11-01T00:29:48.287Z,87.40
2018-11-01T00:32:18.622Z,89.10
2018-11-01T00:34:48.967Z,88.40
2018-11-01T00:37:19.268Z,87.67
2018-11-01T00:39:49.615Z,79.17
2018-11-01T00:42:20.316Z,75.57
2018-11-01T00:44:50.731Z,63.47
2018-11-01T00:47:21.212Z,61.80
2018-11-01T00:49:51.693Z,61.83
2018-11-01T00:52:22.050Z,68.00
2018-11-01T00:54:52.376Z,71.30
2018-11-01T00:57:22.676Z,68.10
2018-11-01T00:59:53.100Z,77.70
2018-11-01T01:02:23.800Z,89.77
2018-11-01T01:04:54.348Z,95.10
2018-11-01T01:07:24.849Z,95.60
2018-11-01T01:09:55.300Z,100.73
2018-11-01T01:12:25.854Z,104.37
2018-11-01T01:14:56.696Z,108.43
2018-11-01T01:17:27.426Z,105.20
2018-11-01T01:19:57.807Z,108.90
2018-11-01T01:22:28.443Z,114.53
2018-11-01T01:24:59.321Z,111.80
2018-11-01T01:27:29.917Z,125.83
2018-11-01T01:30:00.362Z,121.13
2018-11-01T01:32:30.879Z,139.43
2018-11-01T01:35:01.389Z,119.20
2018-11-01T01:37:31.970Z,107.73
2018-11-01T01:40:02.430Z,97.73
2018-11-01T01:42:38.190Z,107.27
2018-11-01T01:45:28.839Z,108.20
2018-11-01T01:47:59.405Z,105.37
2018-11-01T01:50:29.759Z,107.80
2018-11-01T01:53:00.125Z,106.57
2018-11-01T01:55:30.729Z,107.00
2018-11-01T01:58:00.989Z,111.17
2018-11-01T02:00:31.108Z,110.63
2018-11-01T02:03:01.272Z,111.27
2018-11-01T02:05:31.603Z,106.87
2018-11-01T02:08:01.769Z,107.83
2018-11-01T02:10:31.871Z,109.73
2018-11-01T02:13:02.053Z,110.77
2018-11-01T02:15:32.526Z,111.87
2018-11-01T02:18:03.081Z,109.13
2018-11-01T02:20:33.538Z,105.73
2018-11-01T02:23:03.799Z,106.07
2018-11-01T02:25:34.236Z,104.17
2018-11-01T02:28:09.540Z,87.40
2018-11-01T02:30:39.969Z,83.23
2018-11-01T02:33:10.717Z,79.37
2018-11-01T02:35:41.103Z,75.10
2018-11-01T02:38:11.491Z,72.13
2018-11-01T02:40:41.850Z,68.33
2018-11-01T02:43:12.208Z,64.57
2018-11-01T02:45:42.769Z,65.90
2018-11-01T02:48:13.452Z,70.17
2018-11-01T02:50:43.973Z,70.67
2018-11-01T02:53:14.307Z,71.90
2018-11-01T02:55:44.573Z,83.23
2018-11-01T02:58:15.141Z,86.90
2018-11-01T03:00:45.621Z,91.43
2018-11-01T03:03:15.918Z,97.90
2018-11-01T03:05:46.141Z,105.57
2018-11-01T03:08:16.522Z,100.50
2018-11-01T03:10:46.915Z,104.83
2018-11-01T03:13:17.431Z,109.87
2018-11-01T03:15:47.834Z,110.50
2018-11-01T03:18:18.093Z,110.50
2018-11-01T03:20:48.477Z,109.23
2018-11-01T03:23:18.870Z,106.77
2018-11-01T03:25:49.143Z,105.37
2018-11-01T03:28:19.362Z,108.30
2018-11-01T03:30:49.638Z,107.13
2018-11-01T03:33:20.502Z,104.83
2018-11-01T03:35:50.827Z,91.23
2018-11-01T03:38:21.375Z,80.10
2018-11-01T03:40:51.698Z,78.20
2018-11-01T03:43:22.494Z,77.57
2018-11-01T03:45:52.800Z,79.73
2018-11-01T03:48:23.471Z,78.50
2018-11-01T03:50:53.914Z,82.03
2018-11-01T03:53:24.457Z,85.00
2018-11-01T03:55:55.881Z,83.50
2018-11-01T03:58:26.500Z,80.43
2018-11-01T04:00:56.856Z,61.97
2018-11-01T04:03:27.491Z,59.57
2018-11-01T04:05:57.757Z,53.13
2018-11-01T04:08:28.030Z,54.27
2018-11-01T04:10:58.361Z,56.27
2018-11-01T04:13:28.804Z,58.60
2018-11-01T04:15:59.372Z,67.17
2018-11-01T04:18:29.648Z,58.63
2018-11-01T04:21:00.150Z,61.13
2018-11-01T04:23:30.688Z,59.73
2018-11-01T04:26:01.412Z,62.07
2018-11-01T04:28:32.095Z,68.13
2018-11-01T04:31:02.372Z,66.00
2018-11-01T04:33:34.028Z,74.10
2018-11-01T04:36:04.626Z,78.70
2018-11-01T04:38:34.882Z,75.03
2018-11-01T04:41:05.148Z,77.83
2018-11-01T04:43:35.500Z,79.17
2018-11-01T04:46:07.403Z,77.07
2018-11-01T04:48:37.836Z,74.73
2018-11-01T04:51:08.607Z,71.30
2018-11-01T04:53:39.099Z,65.83
2018-11-01T04:56:09.418Z,65.70
2018-11-01T04:58:39.873Z,62.13
2018-11-01T05:01:10.323Z,64.57
2018-11-01T05:03:40.692Z,65.50
2018-11-01T05:06:11.075Z,70.27
2018-11-01T05:08:41.453Z,62.33
2018-11-01T05:11:11.870Z,60.40
2018-11-01T05:13:42.207Z,61.63
2018-11-01T05:16:12.687Z,59.90
2018-11-01T05:18:43.722Z,56.53
2018-11-01T05:21:14.535Z,58.30
2018-11-01T05:23:45.193Z,77.47
2018-11-01T05:26:15.462Z,79.17
2018-11-01T05:28:45.835Z,81.73
2018-11-01T05:31:16.260Z,85.47
2018-11-01T05:33:46.525Z,82.93
2018-11-01T05:36:17.119Z,84.03
2018-11-01T05:38:47.476Z,82.17
2018-11-01T05:41:17.827Z,107.00
2018-11-01T05:43:48.173Z,105.90
2018-11-01T05:46:18.434Z,116.43
2018-11-01T05:48:48.880Z,114.17
2018-11-01T05:51:19.306Z,108.97
2018-11-01T05:53:49.681Z,120.13
2018-11-01T05:56:20.113Z,117.83
2018-11-01T05:58:50.490Z,119.23
2018-11-01T06:01:26.145Z,127.50
2018-11-01T06:03:56.451Z,141.17
2018-11-01T06:06:33.384Z,139.40
2018-11-01T06:09:06.920Z,138.10
2018-11-01T06:11:37.445Z,132.40
2018-11-01T06:14:07.784Z,136.43
2018-11-01T06:16:38.111Z,143.67
2018-11-01T06:19:08.587Z,151.47
2018-11-01T06:21:38.941Z,167.70
2018-11-01T06:24:09.303Z,177.50
2018-11-01T06:26:39.706Z,172.60
2018-11-01T06:29:10.149Z,178.13
2018-11-01T06:31:40.706Z,159.03
2018-11-01T06:35:17.595Z,136.60
2018-11-01T06:37:48.426Z,123.53
2018-11-01T06:40:19.277Z,113.73
2018-11-01T06:42:49.661Z,94.47
2018-11-01T06:45:20.220Z,95.20
2018-11-01T06:47:50.888Z,90.72
2018-11-01T06:50:21.246Z,78.90
2018-11-01T06:52:51.711Z,69.00
2018-11-01T06:55:22.035Z,58.63
2018-11-01T06:57:52.423Z,76.53
2018-11-01T07:00:22.832Z,84.73
2018-11-01T07:02:53.185Z,72.43
2018-11-01T07:05:23.606Z,71.07
2018-11-01T07:07:53.980Z,71.93
2018-11-01T07:10:24.284Z,77.23
2018-11-01T07:12:55.208Z,68.50
2018-11-01T07:15:28.137Z,35.33
2018-11-01T07:17:59.548Z,25.20
2018-11-01T07:20:29.820Z,28.50
2018-11-01T07:23:00.004Z,26.93
2018-11-01T07:25:30.426Z,22.50
2018-11-01T07:28:00.606Z,23.63
2018-11-01T07:30:31.494Z,25.83
2018-11-01T07:33:01.951Z,26.27
2018-11-01T07:35:32.358Z,25.67
2018-11-01T07:38:02.982Z,27.13
2018-11-01T07:40:33.320Z,27.77
2018-11-01T07:43:03.734Z,29.83
2018-11-01T07:45:34.210Z,30.53
2018-11-01T07:48:04.591Z,26.87
2018-11-01T07:50:34.905Z,21.47
2018-11-01T07:53:06.922Z,17.43
2018-11-01T07:55:37.288Z,17.07
2018-11-01T07:58:07.669Z,18.07
2018-11-01T08:00:38.072Z,15.90
2018-11-01T08:03:08.471Z,14.93
2018-11-01T08:05:38.734Z,13.70
2018-11-01T08:08:09.145Z,13.67
2018-11-01T08:10:39.423Z,12.80
2018-11-01T08:13:09.812Z,14.80
2018-11-01T08:15:40.468Z,15.53
2018-11-01T08:18:10.772Z,13.60
2018-11-01T08:20:41.476Z,13.17
2018-11-01T08:23:11.859Z,12.40
2018-11-01T08:25:48.667Z,13.77
2018-11-01T08:28:19.235Z,11.77
2018-11-01T08:30:49.828Z,11.93
2018-11-01T08:33:20.316Z,12.13
2018-11-01T08:35:50.614Z,12.83
2018-11-01T08:38:20.925Z,14.00
2018-11-01T08:40:51.511Z,13.73
2018-11-01T08:43:26.601Z,13.83
2018-11-01T08:45:58.495Z,12.97
2018-11-01T08:48:28.904Z,13.07
2018-11-01T08:50:59.244Z,13.20
2018-11-01T08:53:29.482Z,13.37
2018-11-01T08:55:59.946Z,13.37
2018-11-01T08:58:30.740Z,14.30
2018-11-01T09:01:01.112Z,13.40
2018-11-01T09:03:31.945Z,12.73
2018-11-01T09:06:02.351Z,13.10
2018-11-01T09:08:37.495Z,12.93
2018-11-01T09:11:08.603Z,13.67
2018-11-01T09:13:38.943Z,13.40
2018-11-01T09:16:09.399Z,11.67
2018-11-01T09:18:39.784Z,13.83
2018-11-01T09:21:10.976Z,14.00
2018-11-01T09:23:41.295Z,13.93
2018-11-01T09:26:11.571Z,12.23
2018-11-01T09:28:42.104Z,14.63
2018-11-01T09:31:13.776Z,13.97
2018-11-01T09:33:44.604Z,14.40
2018-11-01T09:38:44.142Z,17.03
2018-11-01T09:41:14.444Z,14.47
2018-11-01T09:43:45.169Z,13.90
2018-11-01T09:46:15.789Z,18.23
2018-11-01T09:48:46.214Z,16.50
2018-11-01T09:51:17.306Z,19.07
2018-11-01T09:53:47.632Z,17.53
2018-11-01T09:56:18.167Z,18.53
2018-11-01T09:58:59.774Z,14.40
2018-11-01T10:01:30.747Z,15.03
2018-11-01T10:04:01.279Z,15.47
2018-11-01T10:06:32.760Z,17.90
2018-11-01T10:09:05.425Z,16.10
2018-11-01T10:11:35.979Z,16.70
2018-11-01T10:14:06.705Z,16.73
2018-11-01T10:16:38.034Z,14.07
2018-11-01T10:19:09.559Z,14.13
2018-11-01T10:21:39.878Z,13.73
2018-11-01T10:24:10.211Z,15.87
2018-11-01T10:26:41.482Z,18.27
2018-11-01T10:29:12.209Z,17.77
2018-11-01T10:31:42.416Z,16.80
2018-11-01T10:34:12.836Z,14.40
2018-11-01T10:36:43.047Z,14.47
2018-11-01T10:39:13.618Z,14.40
2018-11-01T10:41:43.926Z,14.00
2018-11-01T10:44:14.398Z,14.80
2018-11-01T10:46:44.734Z,15.47
2018-11-01T10:49:15.202Z,15.63
2018-11-01T10:51:45.545Z,16.07
2018-11-01T10:54:16.047Z,15.13
2018-11-01T10:56:46.404Z,14.97
2018-11-01T10:59:16.942Z,15.10
2018-11-01T11:01:52.206Z,14.23
2018-11-01T11:04:22.646Z,16.27
2018-11-01T11:06:53.525Z,16.17
2018-11-01T11:09:23.791Z,14.50
2018-11-01T11:11:54.138Z,14.73
2018-11-01T11:14:24.442Z,17.20
2018-11-01T11:16:54.730Z,18.33
2018-11-01T11:19:25.230Z,15.43
2018-11-01T11:21:55.621Z,17.00
2018-11-01T11:24:26.021Z,15.33
2018-11-01T11:26:56.242Z,14.73
2018-11-01T11:29:26.521Z,15.53
2018-11-01T11:31:57.265Z,15.17
2018-11-01T11:34:27.582Z,19.27
2018-11-01T11:36:58.037Z,18.23
2018-11-01T11:39:28.472Z,18.73
2018-11-01T11:41:58.868Z,18.93
2018-11-01T11:44:29.186Z,17.73
2018-11-01T11:46:59.638Z,17.40
2018-11-01T11:49:30.064Z,21.17
2018-11-01T11:52:00.393Z,18.57
2018-11-01T11:54:30.798Z,16.67
2018-11-01T11:57:01.258Z,18.30
2018-11-01T11:59:31.666Z,17.27
2018-11-01T12:02:02.010Z,18.67
2018-11-01T12:04:32.588Z,18.23
2018-11-01T12:07:03.054Z,18.10
2018-11-01T12:09:33.336Z,17.67
2018-11-01T12:12:03.615Z,16.73
2018-11-01T12:14:34.232Z,17.20
2018-11-01T12:17:04.965Z,18.33
2018-11-01T12:19:35.351Z,16.97
2018-11-01T12:22:05.869Z,17.60
2018-11-01T12:24:36.109Z,16.70
2018-11-01T12:27:06.505Z,17.90
2018-11-01T12:29:37.100Z,16.93
2018-11-01T12:32:07.613Z,15.80
2018-11-01T12:34:38.078Z,17.43
2018-11-01T12:37:08.505Z,16.83
2018-11-01T12:39:38.911Z,18.27
2018-11-01T12:42:09.433Z,18.40
2018-11-01T12:44:39.869Z,18.67
2018-11-01T12:47:10.650Z,17.67
2018-11-01T12:49:41.023Z,17.07
2018-11-01T12:52:11.350Z,15.10
2018-11-01T12:54:48.234Z,15.73
2018-11-01T12:57:33.759Z,15.40
2018-11-01T13:00:04.427Z,14.63
2018-11-01T13:02:34.728Z,15.77
2018-11-01T13:05:05.180Z,15.30
2018-11-01T13:07:35.542Z,16.03
2018-11-01T13:10:07.303Z,15.53
2018-11-01T13:12:37.720Z,16.05
2018-11-01T13:15:09.444Z,16.13
2018-11-01T13:17:40.143Z,16.03
2018-11-01T13:20:11.101Z,16.77
2018-11-01T13:22:41.714Z,22.17
2018-11-01T13:25:13.016Z,22.50
2018-11-01T13:27:43.420Z,20.50
2018-11-01T13:30:15.074Z,19.37
2018-11-01T13:32:46.070Z,21.70
2018-11-01T13:35:16.626Z,19.90
2018-11-01T13:37:46.938Z,19.00
2018-11-01T13:40:17.991Z,17.90
2018-11-01T13:42:48.149Z,19.33
2018-11-01T13:45:18.419Z,18.10
2018-11-01T13:47:49.560Z,19.97
2018-11-01T13:50:19.843Z,19.87
2018-11-01T13:52:50.230Z,19.80
2018-11-01T13:55:20.715Z,21.57
2018-11-01T13:57:51.043Z,23.93
2018-11-01T14:00:21.474Z,24.93
2018-11-01T14:02:52.141Z,21.83
2018-11-01T14:05:22.592Z,21.40
2018-11-01T14:07:52.810Z,22.10
2018-11-01T14:10:23.267Z,22.50
2018-11-01T14:12:53.552Z,23.73
2018-11-01T14:15:24.342Z,27.13
2018-11-01T14:21:03.856Z,29.00
2018-11-01T14:23:34.181Z,28.43
2018-11-01T14:26:04.506Z,29.57
2018-11-01T14:28:35.063Z,32.10
2018-11-01T14:31:05.838Z,34.60
2018-11-01T14:33:36.135Z,35.83
2018-11-01T14:36:07.200Z,38.53
2018-11-01T14:38:37.520Z,36.43
2018-11-01T14:41:07.941Z,35.57
2018-11-01T14:43:38.340Z,39.40
2018-11-01T14:46:08.624Z,41.73
2018-11-01T14:48:38.998Z,49.87
2018-11-01T14:51:09.579Z,48.33
2018-11-01T14:53:40.204Z,50.67
2018-11-01T14:56:11.975Z,49.50
2018-11-01T14:58:42.504Z,52.03
2018-11-01T15:01:11.907Z,51.33
2018-11-01T15:03:42.357Z,73.07
2018-11-01T15:06:12.901Z,72.77
2018-11-01T15:08:43.362Z,79.03
2018-11-01T15:11:13.725Z,70.97
2018-11-01T15:13:44.479Z,64.47
2018-11-01T15:16:14.940Z,71.20
2018-11-01T15:18:45.432Z,62.97
2018-11-01T15:21:15.864Z,67.27
2018-11-01T15:23:46.105Z,68.47
2018-11-01T15:26:16.693Z,71.10
2018-11-01T15:28:47.244Z,67.60
2018-11-01T15:31:18.581Z,73.93
2018-11-01T15:33:49.203Z,83.67
2018-11-01T15:36:19.445Z,84.40
2018-11-01T15:38:51.299Z,85.00
2018-11-01T15:41:21.957Z,92.80
2018-11-01T15:43:52.570Z,86.50
2018-11-01T15:46:22.999Z,91.63
2018-11-01T15:48:53.299Z,76.37
2018-11-01T15:51:24.554Z,73.93
2018-11-01T15:53:54.861Z,71.50
2018-11-01T15:56:25.544Z,69.90
2018-11-01T15:58:56.116Z,64.90
2018-11-01T16:01:26.724Z,71.10
2018-11-01T16:03:57.125Z,76.23
2018-11-01T16:06:27.405Z,85.07
2018-11-01T16:08:57.904Z,78.70
2018-11-01T16:11:28.345Z,73.00
2018-11-01T16:13:58.764Z,71.87
2018-11-01T16:16:29.197Z,68.13
2018-11-01T16:18:59.655Z,64.20
2018-11-01T16:21:30.214Z,62.10
2018-11-01T16:24:00.832Z,63.57
2018-11-01T16:26:31.294Z,61.77
2018-11-01T16:29:02.073Z,58.53
2018-11-01T16:31:32.805Z,60.40
2018-11-01T16:34:03.071Z,57.00
2018-11-01T16:36:33.666Z,57.80
2018-11-01T16:39:05.731Z,58.60
2018-11-01T16:41:36.038Z,57.30
2018-11-01T16:44:06.510Z,84.10
2018-11-01T16:46:37.031Z,90.00
2018-11-01T16:49:08.634Z,92.90
2018-11-01T16:51:39.115Z,101.23
2018-11-01T16:54:10.700Z,109.97
2018-11-01T16:56:41.489Z,109.77
2018-11-01T16:59:13.772Z,120.03
2018-11-01T17:01:45.453Z,123.27
2018-11-01T17:04:18.257Z,111.00
2018-11-01T17:06:48.746Z,101.43
2018-11-01T17:09:19.923Z,105.07
2018-11-01T17:11:50.830Z,99.93
2018-11-01T17:14:21.248Z,100.50
2018-11-01T17:16:51.931Z,98.10
2018-11-01T17:19:22.468Z,101.13
2018-11-01T17:21:53.038Z,119.33
2018-11-01T17:24:23.573Z,112.13
2018-11-01T17:26:54.038Z,111.30
2018-11-01T17:29:24.834Z,109.90
2018-11-01T17:31:55.302Z,105.33
2018-11-01T17:34:26.402Z,94.10
2018-11-01T17:36:59.238Z,99.53
2018-11-01T17:39:29.683Z,98.40
2018-11-01T17:42:00.151Z,100.17
2018-11-01T17:44:30.548Z,97.83
2018-11-01T17:47:01.405Z,97.63
2018-11-01T17:49:31.896Z,80.50
2018-11-01T17:52:02.409Z,81.87
2018-11-01T17:54:32.977Z,85.23
2018-11-01T17:57:03.386Z,81.33
2018-11-01T17:59:33.852Z,82.73
2018-11-01T18:02:04.667Z,81.70
2018-11-01T18:04:34.948Z,77.87
2018-11-01T18:07:05.453Z,76.03
2018-11-01T18:09:36.078Z,72.67
2018-11-01T18:12:07.071Z,78.73
2018-11-01T18:14:37.684Z,68.53
2018-11-01T18:17:08.059Z,70.73
2018-11-01T18:19:38.526Z,74.23
2018-11-01T18:22:08.876Z,73.37
2018-11-01T18:24:39.200Z,74.43
2018-11-01T18:27:09.950Z,71.30
2018-11-01T18:29:40.249Z,70.47
2018-11-01T18:32:10.635Z,68.90
2018-11-01T18:34:41.395Z,68.80
2018-11-01T18:37:12.693Z,63.83
2018-11-01T18:39:43.181Z,64.27
2018-11-01T18:42:13.681Z,64.63
2018-11-01T18:44:44.015Z,72.20
2018-11-01T18:47:14.344Z,89.95
2018-11-01T18:49:45.236Z,84.47
2018-11-01T18:52:16.184Z,91.42
2018-11-01T18:54:46.752Z,87.50
2018-11-01T18:57:18.098Z,82.83
2018-11-01T18:59:48.612Z,78.43
2018-11-01T19:02:19.008Z,77.40
2018-11-01T19:04:49.457Z,87.27
2018-11-01T19:07:19.900Z,81.40
2018-11-01T19:09:50.496Z,81.23
2018-11-01T19:12:20.798Z,75.60
2018-11-01T19:14:51.638Z,75.23
2018-11-01T19:17:22.059Z,76.97
2018-11-01T19:19:52.475Z,77.73
2018-11-01T19:22:22.982Z,69.07
2018-11-01T19:24:53.511Z,68.47
2018-11-01T19:27:24.113Z,68.53
2018-11-01T19:29:54.138Z,70.13
2018-11-01T19:32:24.665Z,72.77
2018-11-01T19:34:55.090Z,69.57
2018-11-01T19:37:25.696Z,70.83
2018-11-01T19:39:56.183Z,69.87
2018-11-01T19:42:27.133Z,81.13
2018-11-01T19:44:57.907Z,79.33
2018-11-01T19:47:28.375Z,82.63
2018-11-01T19:49:58.888Z,85.83
2018-11-01T19:52:29.333Z,84.33
2018-11-01T19:54:59.596Z,86.07
2018-11-01T19:57:36.511Z,86.57
2018-11-01T20:00:09.098Z,88.37
2018-11-01T20:02:39.514Z,85.33
2018-11-01T20:05:10.590Z,81.83
2018-11-01T20:07:41.052Z,80.93
2018-11-01T20:10:13.388Z,97.42
2018-11-01T20:12:44.270Z,96.57
2018-11-01T20:15:14.649Z,105.87
2018-11-01T20:17:44.903Z,113.67
2018-11-01T20:20:15.591Z,108.60
2018-11-01T20:22:46.671Z,100.07
2018-11-01T20:25:17.042Z,95.80
2018-11-01T20:27:47.462Z,101.12
2018-11-01T20:30:18.160Z,85.47
2018-11-01T20:32:48.530Z,77.73
2018-11-01T20:35:19.153Z,83.67
2018-11-01T20:37:49.516Z,92.10
2018-11-01T20:40:20.123Z,78.97
2018-11-01T20:42:50.399Z,79.67
2018-11-01T20:45:20.723Z,77.00
2018-11-01T20:47:51.107Z,72.30
2018-11-01T20:50:21.509Z,88.78
2018-11-01T20:52:51.956Z,86.73
2018-11-01T20:55:22.331Z,85.10
2018-11-01T20:57:52.938Z,84.53
2018-11-01T21:00:24.402Z,83.80
2018-11-01T21:02:54.835Z,93.23
2018-11-01T21:05:25.093Z,97.00
2018-11-01T21:07:55.453Z,99.30
2018-11-01T21:10:25.844Z,97.60
2018-11-01T21:12:56.621Z,98.70
2018-11-01T21:15:27.015Z,97.67
2018-11-01T21:17:57.638Z,103.13
2018-11-01T21:20:28.152Z,113.73
2018-11-01T21:22:58.880Z,120.67
2018-11-01T21:25:29.482Z,107.13
2018-11-01T21:27:59.992Z,105.43
2018-11-01T21:30:30.693Z,103.20
2018-11-01T21:33:01.579Z,103.93
2018-11-01T21:35:32.264Z,101.47
2018-11-01T21:38:02.681Z,104.27
2018-11-01T21:40:33.251Z,107.30
2018-11-01T21:43:03.833Z,108.97
2018-11-01T21:45:34.296Z,106.87
2018-11-01T21:48:04.828Z,109.53
2018-11-01T21:50:35.370Z,103.80
2018-11-01T21:53:06.044Z,101.10
2018-11-01T21:55:36.382Z,101.27
2018-11-01T21:58:07.307Z,101.43
2018-11-01T22:00:38.122Z,110.13
2018-11-01T22:03:08.713Z,122.40
2018-11-01T22:05:39.369Z,119.93
2018-11-01T22:08:09.836Z,124.20
2018-11-01T22:10:40.953Z,123.93
2018-11-01T22:13:11.670Z,122.07
2018-11-01T22:15:42.116Z,115.17
2018-11-01T22:18:12.661Z,117.60
2018-11-01T22:20:43.131Z,116.27
2018-11-01T22:23:13.658Z,121.17
2018-11-01T22:25:44.225Z,119.30
2018-11-01T22:28:15.079Z,117.47
2018-11-01T22:30:45.391Z,113.37
2018-11-01T22:33:16.086Z,114.37
2018-11-01T22:35:46.626Z,116.03
2018-11-01T22:38:17.210Z,135.03
2018-11-01T22:40:48.137Z,126.07
2018-11-01T22:43:18.878Z,103.73
2018-11-01T22:45:49.784Z,94.65
2018-11-01T22:48:20.890Z,92.90
2018-11-01T22:50:52.279Z,87.43
2018-11-01T22:53:23.781Z,86.10
2018-11-01T22:55:54.861Z,85.97
2018-11-01T22:58:25.934Z,85.67
2018-11-01T23:00:56.588Z,85.07
2018-11-01T23:03:27.260Z,81.70
2018-11-01T23:05:59.605Z,89.83
2018-11-01T23:08:31.720Z,92.65
2018-11-01T23:11:02.924Z,87.07
2018-11-01T23:13:33.485Z,85.13
2018-11-01T23:16:04.162Z,86.23
2018-11-01T23:18:35.033Z,82.70
2018-11-01T23:21:06.215Z,74.33
2018-11-01T23:23:36.722Z,67.50
2018-11-01T23:26:07.719Z,77.58
2018-11-01T23:28:38.357Z,69.37
2018-11-01T23:31:09.178Z,64.10
2018-11-01T23:33:39.817Z,65.10
2018-11-01T23:36:09.451Z,77.78
2018-11-01T23:38:45.051Z,84.35
2018-11-01T23:41:20.546Z,82.97
2018-11-01T23:43:55.847Z,75.83
2018-11-01T23:46:31.456Z,80.83
2018-11-01T23:49:07.319Z,99.00
2018-11-01T23:51:38.044Z,80.90
2018-11-01T23:54:08.915Z,103.65
2018-11-01T23:56:39.994Z,91.13
2018-11-01T23:59:10.816Z,85.00
